Au Sable Forks, New York
Current Conditions -  °F | °C
As of 4:11 PM on Saturday 20 Dec 2014 (Local Time) from KPBG Reporting Station
Few Clouds Few Clouds  
Wind Chill: -12°   Ceiling: Unl
Heat Index: -7°   Visibility: 10mi
Dew Point: -9°   Wind: 7mph
Humidity: 81%   Direction: 360°N
Pressure: 30.32"   Gusts: NA
Location:  44.44°N, 73.67°W
Report Text: KPBG 202111Z AUTO 36006KT 10SM FEW014 M07/M09 A3032 RMK AO2 T10671094
Loading
Personal Weather Stations






























Interactive Weather Map New forecast layout! Learn more

10-Day Weather Forecast

Advertisements
Track Severe Weather on mobile